createdAt,value
2019-04-29T00:01:43.641Z,87.41
2019-04-29T00:04:41.347Z,87.77
2019-04-29T00:07:39.100Z,88.04
2019-04-29T00:10:34.675Z,88.49
2019-04-29T00:13:31.293Z,88.97
2019-04-29T00:16:41.876Z,89.20
2019-04-29T00:19:51.977Z,89.40
2019-04-29T00:22:47.450Z,89.51
2019-04-29T00:25:44.057Z,89.54
2019-04-29T00:28:42.684Z,89.97
2019-04-29T00:31:39.353Z,90.67
2019-04-29T00:34:35.179Z,90.74
2019-04-29T00:37:41.332Z,90.89
2019-04-29T00:40:58.689Z,91.21
2019-04-29T00:44:11.823Z,91.31
2019-04-29T00:47:08.431Z,91.42
2019-04-29T00:50:05.005Z,91.52
2019-04-29T00:53:01.577Z,91.45
2019-04-29T00:55:56.414Z,91.71
2019-04-29T00:58:54.206Z,91.99
2019-04-29T01:01:51.127Z,92.05
2019-04-29T01:04:46.967Z,92.21
2019-04-29T01:07:44.778Z,92.63
2019-04-29T01:10:40.193Z,92.77
2019-04-29T01:13:36.837Z,92.82
2019-04-29T01:16:32.627Z,92.93
2019-04-29T01:19:29.238Z,93.00
2019-04-29T01:22:26.067Z,93.12
2019-04-29T01:25:21.845Z,93.38
2019-04-29T01:28:26.830Z,93.74
2019-04-29T01:31:29.508Z,93.88
2019-04-29T01:34:32.945Z,93.87
2019-04-29T01:37:33.204Z,93.95
2019-04-29T01:40:49.595Z,94.08
2019-04-29T01:44:06.119Z,94.12
2019-04-29T01:47:01.765Z,94.33
2019-04-29T01:49:59.433Z,94.33
2019-04-29T01:52:56.007Z,94.53
2019-04-29T01:55:51.655Z,94.46
2019-04-29T01:58:48.216Z,94.32
2019-04-29T02:01:44.209Z,94.48
2019-04-29T02:04:40.661Z,94.74
2019-04-29T02:07:37.133Z,95.11
2019-04-29T02:10:43.467Z,95.30
2019-04-29T02:13:40.104Z,95.23
2019-04-29T02:16:35.751Z,95.38
2019-04-29T02:19:33.317Z,95.18
2019-04-29T02:22:38.061Z,95.17
2019-04-29T02:25:43.185Z,95.14
2019-04-29T02:28:39.808Z,94.92
2019-04-29T02:31:52.330Z,94.83
2019-04-29T02:34:49.495Z,94.87
2019-04-29T02:37:45.975Z,94.86
2019-04-29T02:40:47.941Z,94.62
2019-04-29T02:43:43.300Z,94.59
2019-04-29T02:46:40.029Z,94.72
2019-04-29T02:49:36.642Z,95.10
2019-04-29T02:52:32.486Z,95.29
2019-04-29T02:55:32.581Z,95.32
2019-04-29T02:58:42.110Z,95.56
2019-04-29T03:01:55.922Z,96.15
2019-04-29T03:05:05.166Z,96.44
2019-04-29T03:08:01.774Z,96.52
2019-04-29T03:10:58.546Z,96.68
2019-04-29T03:13:55.625Z,96.99
2019-04-29T03:16:52.552Z,97.03
2019-04-29T03:19:48.070Z,96.69
2019-04-29T03:22:44.825Z,95.96
2019-04-29T03:25:40.399Z,96.39
2019-04-29T03:28:37.010Z,97.21
2019-04-29T03:31:39.001Z,97.25
2019-04-29T03:34:31.155Z,97.18
2019-04-29T03:37:26.642Z,97.22
2019-04-29T03:40:23.241Z,97.51
2019-04-29T03:43:21.144Z,97.11
2019-04-29T03:46:16.966Z,96.83
2019-04-29T03:49:13.540Z,96.20
2019-04-29T03:52:09.874Z,96.99
2019-04-29T03:55:05.518Z,96.86
2019-04-29T03:58:01.086Z,96.68
2019-04-29T04:00:59.561Z,96.47
2019-04-29T04:03:59.058Z,96.16
2019-04-29T04:07:09.306Z,96.22
2019-04-29T04:10:03.959Z,95.97
2019-04-29T04:13:00.497Z,95.94
2019-04-29T04:15:57.008Z,96.02
2019-04-29T04:18:53.646Z,96.32
2019-04-29T04:21:51.622Z,96.29
2019-04-29T04:24:47.489Z,96.78
2019-04-29T04:27:44.195Z,96.73
2019-04-29T04:30:39.806Z,96.07
2019-04-29T04:33:36.552Z,96.07
2019-04-29T04:36:34.564Z,95.94
2019-04-29T04:39:30.048Z,96.48
2019-04-29T04:42:29.807Z,96.93
2019-04-29T04:45:24.526Z,97.15
2019-04-29T04:48:21.383Z,96.98
2019-04-29T04:51:16.189Z,97.18
2019-04-29T04:54:13.863Z,97.02
2019-04-29T04:57:10.880Z,96.94
2019-04-29T05:00:06.869Z,97.17
2019-04-29T05:03:05.727Z,96.45
2019-04-29T05:06:01.272Z,96.96
2019-04-29T05:08:57.987Z,97.28
2019-04-29T05:11:54.621Z,97.51
2019-04-29T05:14:50.782Z,97.67
2019-04-29T05:17:46.505Z,97.41
2019-04-29T05:20:43.147Z,97.45
2019-04-29T05:23:41.770Z,97.51
2019-04-29T05:26:36.464Z,97.63
2019-04-29T05:29:33.097Z,97.97
2019-04-29T05:32:28.880Z,98.02
2019-04-29T05:35:26.414Z,98.01
2019-04-29T05:38:29.323Z,98.61
2019-04-29T05:41:26.079Z,98.95
2019-04-29T05:44:29.755Z,99.08
2019-04-29T05:47:38.321Z,98.48
2019-04-29T05:50:52.173Z,99.21
2019-04-29T05:53:54.959Z,98.16
2019-04-29T05:56:51.199Z,98.09
2019-04-29T05:59:47.833Z,97.95
2019-04-29T06:02:44.683Z,98.03
2019-04-29T06:05:41.291Z,98.10
2019-04-29T06:08:39.245Z,97.22
2019-04-29T06:11:34.142Z,96.84
2019-04-29T06:14:30.175Z,96.72
2019-04-29T06:17:44.821Z,97.03
2019-04-29T06:20:37.532Z,97.26
2019-04-29T06:23:35.575Z,97.36
2019-04-29T06:26:31.039Z,97.60
2019-04-29T06:29:27.663Z,97.43
2019-04-29T06:32:24.888Z,97.35
2019-04-29T06:35:19.961Z,96.90
2019-04-29T06:38:16.326Z,96.53
2019-04-29T06:41:12.182Z,95.81
2019-04-29T06:44:16.103Z,95.70
2019-04-29T06:47:05.984Z,95.29
2019-04-29T06:50:02.521Z,93.94
2019-04-29T06:52:58.232Z,93.45
2019-04-29T06:55:56.136Z,93.22
2019-04-29T06:58:57.841Z,91.87
2019-04-29T07:01:54.530Z,90.12
2019-04-29T07:04:51.583Z,90.24
2019-04-29T07:07:53.088Z,89.32
2019-04-29T07:10:49.479Z,89.79
2019-04-29T07:13:46.718Z,86.95
2019-04-29T07:16:43.622Z,86.44
2019-04-29T07:19:39.600Z,84.72
2019-04-29T07:22:36.280Z,85.41
2019-04-29T07:25:34.857Z,84.88
2019-04-29T07:28:31.502Z,83.14
2019-04-29T07:31:33.422Z,84.62
2019-04-29T07:34:28.734Z,82.13
2019-04-29T07:37:21.432Z,80.68
2019-04-29T07:40:18.342Z,80.75
2019-04-29T07:43:14.926Z,80.43
2019-04-29T07:46:29.050Z,79.33
2019-04-29T07:49:25.792Z,78.48
2019-04-29T07:52:21.343Z,77.75
2019-04-29T07:55:18.352Z,76.42
2019-04-29T07:58:15.306Z,74.59
2019-04-29T08:01:19.863Z,74.37
2019-04-29T08:04:13.971Z,74.60
2019-04-29T08:07:09.628Z,74.52
2019-04-29T08:10:22.525Z,73.66
2019-04-29T08:13:02.128Z,73.15
2019-04-29T08:15:59.900Z,72.80
2019-04-29T08:18:56.500Z,71.90
2019-04-29T08:21:51.751Z,74.71
2019-04-29T08:24:50.441Z,76.12
2019-04-29T08:27:44.911Z,71.54
2019-04-29T08:30:45.877Z,72.25
2019-04-29T08:33:37.310Z,71.90
2019-04-29T08:36:34.225Z,71.90
2019-04-29T08:39:31.171Z,71.16
2019-04-29T08:42:27.351Z,69.43
2019-04-29T08:45:38.965Z,69.01
2019-04-29T08:48:32.018Z,69.43
2019-04-29T08:51:28.593Z,68.15
2019-04-29T08:54:24.484Z,70.32
2019-04-29T08:57:22.226Z,65.06
2019-04-29T09:00:18.125Z,65.21
2019-04-29T09:03:18.846Z,65.71
2019-04-29T09:06:13.805Z,66.29
2019-04-29T09:09:27.915Z,68.46
2019-04-29T09:12:06.101Z,63.88
2019-04-29T09:15:02.797Z,67.14
2019-04-29T09:17:59.588Z,67.37
2019-04-29T09:20:55.485Z,68.05
2019-04-29T09:23:52.256Z,65.41
2019-04-29T09:26:52.655Z,66.22
2019-04-29T09:29:54.224Z,66.23
2019-04-29T09:32:48.323Z,62.97
2019-04-29T09:35:45.183Z,64.86
2019-04-29T09:38:41.669Z,64.21
2019-04-29T09:41:50.190Z,61.77
2019-04-29T09:45:08.399Z,61.57
2019-04-29T09:48:03.074Z,62.77
2019-04-29T09:50:59.745Z,62.82
2019-04-29T09:53:55.418Z,61.95
2019-04-29T09:56:59.263Z,61.11
2019-04-29T10:00:00.209Z,60.15
2019-04-29T10:03:05.034Z,60.81
2019-04-29T10:06:14.909Z,63.66
2019-04-29T10:09:11.398Z,60.62
2019-04-29T10:12:08.322Z,61.78
2019-04-29T10:15:04.935Z,60.73
2019-04-29T10:18:13.476Z,62.23
2019-04-29T10:21:16.554Z,57.01
2019-04-29T10:24:14.425Z,59.01
2019-04-29T10:27:07.864Z,59.03
2019-04-29T10:30:04.553Z,60.07
2019-04-29T10:33:00.153Z,60.15
2019-04-29T10:35:56.591Z,59.85
2019-04-29T10:38:53.476Z,62.48
2019-04-29T10:41:52.217Z,62.47
2019-04-29T10:45:05.097Z,60.93
2019-04-29T10:48:10.217Z,60.67
2019-04-29T10:51:05.737Z,58.13
2019-04-29T10:54:02.444Z,58.20
2019-04-29T10:57:02.108Z,57.44
2019-04-29T11:00:01.145Z,59.98
2019-04-29T11:02:55.133Z,57.69
2019-04-29T11:06:01.847Z,56.22
2019-04-29T11:09:01.368Z,56.61
2019-04-29T11:12:02.706Z,61.32
2019-04-29T11:15:01.377Z,59.33
2019-04-29T11:18:03.215Z,58.56
2019-04-29T11:20:56.413Z,60.72
2019-04-29T11:24:08.717Z,59.93
2019-04-29T11:27:22.650Z,59.61
2019-04-29T11:30:21.153Z,58.69
2019-04-29T11:33:21.990Z,59.68
2019-04-29T11:36:19.888Z,62.75
2019-04-29T11:39:15.519Z,59.75
2019-04-29T11:42:11.718Z,61.44
2019-04-29T11:45:07.315Z,66.73
2019-04-29T11:48:10.959Z,67.65
2019-04-29T11:51:16.502Z,70.37
2019-04-29T11:54:17.904Z,68.02
2019-04-29T11:57:10.118Z,70.11
2019-04-29T12:00:19.890Z,65.97
2019-04-29T12:03:19.979Z,68.13
2019-04-29T12:06:16.361Z,68.39
2019-04-29T12:09:11.116Z,71.17
2019-04-29T12:12:12.328Z,74.59
2019-04-29T12:15:20.509Z,73.46
2019-04-29T12:18:42.992Z,73.42
2019-04-29T12:21:49.794Z,74.45
2019-04-29T12:24:45.498Z,72.14
2019-04-29T12:27:42.086Z,73.88
2019-04-29T12:30:39.692Z,70.62
2019-04-29T12:33:40.491Z,68.81
2019-04-29T12:36:54.625Z,69.08
2019-04-29T12:39:47.448Z,72.15
2019-04-29T12:43:11.189Z,70.32
2019-04-29T12:46:19.248Z,69.14
2019-04-29T12:49:17.149Z,68.88
2019-04-29T12:52:13.933Z,70.14
2019-04-29T12:55:20.272Z,65.46
2019-04-29T12:58:06.410Z,68.38
2019-04-29T13:01:05.932Z,70.59
2019-04-29T13:04:14.896Z,70.02
2019-04-29T13:07:28.182Z,70.68
2019-04-29T13:10:32.375Z,71.38
2019-04-29T13:13:28.327Z,72.94
2019-04-29T13:16:50.879Z,69.89
2019-04-29T13:20:01.628Z,75.68
2019-04-29T13:22:48.121Z,73.12
2019-04-29T13:25:51.061Z,72.70
2019-04-29T13:29:00.373Z,74.32
2019-04-29T13:31:53.090Z,76.16
2019-04-29T13:34:50.461Z,75.82
2019-04-29T13:37:47.443Z,74.77
2019-04-29T13:40:43.256Z,75.24
2019-04-29T13:43:40.293Z,75.22
2019-04-29T13:46:53.565Z,73.15
2019-04-29T13:50:17.072Z,76.93
2019-04-29T13:52:55.299Z,77.16
2019-04-29T13:56:10.493Z,79.48
2019-04-29T13:58:48.726Z,80.20
2019-04-29T14:02:02.919Z,82.31
2019-04-29T14:05:02.214Z,84.38
2019-04-29T14:07:57.281Z,85.90
2019-04-29T14:10:55.056Z,85.66
2019-04-29T14:13:50.767Z,86.58
2019-04-29T14:16:48.603Z,90.37
2019-04-29T14:19:44.159Z,91.02
2019-04-29T14:22:40.962Z,91.26
2019-04-29T14:25:36.544Z,94.21
2019-04-29T14:28:33.020Z,94.18
2019-04-29T14:31:30.357Z,94.12
2019-04-29T14:34:34.851Z,94.53
2019-04-29T14:37:30.520Z,96.03
2019-04-29T14:40:28.414Z,98.89
2019-04-29T14:43:32.140Z,98.34
2019-04-29T14:46:38.845Z,98.14
2019-04-29T14:49:41.178Z,97.65
2019-04-29T14:52:38.283Z,97.46
2019-04-29T14:55:35.656Z,98.96
2019-04-29T14:58:31.306Z,100.00
2019-04-29T15:01:46.678Z,100.00
2019-04-29T15:04:49.244Z,98.95
2019-04-29T15:07:48.935Z,94.28
2019-04-29T15:10:46.614Z,95.43
2019-04-29T15:13:43.047Z,93.13
2019-04-29T15:16:42.932Z,92.49
2019-04-29T15:19:55.098Z,95.43
2019-04-29T15:22:50.374Z,98.04
2019-04-29T15:25:47.847Z,96.76
2019-04-29T15:28:43.969Z,95.47
2019-04-29T15:31:47.062Z,93.17
2019-04-29T15:34:46.505Z,93.16
2019-04-29T15:37:37.604Z,95.10
2019-04-29T15:40:42.026Z,99.22
2019-04-29T15:43:46.505Z,99.22
2019-04-29T15:46:29.781Z,99.02
2019-04-29T15:49:24.671Z,99.42
2019-04-29T15:52:25.993Z,100.00
2019-04-29T15:55:17.732Z,99.70
2019-04-29T15:58:13.853Z,100.00
2019-04-29T16:01:16.760Z,100.00
2019-04-29T16:04:07.363Z,100.00
2019-04-29T16:07:17.665Z,100.00
2019-04-29T16:10:24.249Z,100.00
2019-04-29T16:13:22.631Z,100.00
2019-04-29T16:16:17.170Z,100.00
2019-04-29T16:19:14.021Z,100.00
2019-04-29T16:22:12.860Z,100.00
2019-04-29T16:25:11.098Z,100.00
2019-04-29T16:28:02.053Z,100.00
2019-04-29T16:30:58.754Z,100.00
2019-04-29T16:33:55.830Z,100.00
2019-04-29T16:36:52.647Z,100.00
2019-04-29T16:39:52.908Z,100.00
2019-04-29T16:42:52.585Z,100.00
2019-04-29T16:46:04.302Z,100.00
2019-04-29T16:49:00.995Z,100.00
2019-04-29T16:51:57.049Z,100.00
2019-04-29T16:54:59.018Z,100.00
2019-04-29T16:57:48.897Z,100.00
2019-04-29T17:00:52.160Z,100.00
2019-04-29T17:03:48.778Z,100.00
2019-04-29T17:07:11.166Z,100.00
2019-04-29T17:09:58.119Z,100.00
2019-04-29T17:12:59.682Z,100.00
2019-04-29T17:15:58.581Z,100.00
2019-04-29T17:18:55.341Z,100.00
2019-04-29T17:22:24.167Z,100.00
2019-04-29T17:25:02.779Z,100.00
2019-04-29T17:27:59.950Z,100.00
2019-04-29T17:31:21.486Z,100.00
2019-04-29T17:35:17.001Z,100.00
2019-04-29T17:37:28.554Z,100.00
2019-04-29T17:40:26.395Z,100.00
2019-04-29T17:43:43.029Z,100.00
2019-04-29T17:46:59.281Z,100.00
2019-04-29T17:50:08.679Z,100.00
2019-04-29T17:53:05.458Z,100.00
2019-04-29T17:56:09.966Z,100.00
2019-04-29T17:59:09.398Z,100.00
2019-04-29T18:02:21.662Z,100.00
2019-04-29T18:05:52.215Z,100.00
2019-04-29T18:08:38.401Z,100.00
2019-04-29T18:11:48.916Z,100.00
2019-04-29T18:14:37.797Z,100.00
2019-04-29T18:17:31.179Z,100.00
2019-04-29T18:20:44.859Z,100.00
2019-04-29T18:23:51.439Z,100.00
2019-04-29T18:26:52.742Z,100.00
2019-04-29T18:29:47.735Z,100.00
2019-04-29T18:32:46.652Z,100.00
2019-04-29T18:35:40.636Z,100.00
2019-04-29T18:38:36.304Z,100.00
2019-04-29T18:41:33.249Z,100.00
2019-04-29T18:44:29.918Z,100.00
2019-04-29T18:47:27.575Z,100.00
2019-04-29T18:50:29.671Z,100.00
2019-04-29T18:53:25.569Z,100.00
2019-04-29T18:56:21.898Z,100.00
2019-04-29T18:59:21.035Z,100.00
2019-04-29T19:02:16.149Z,100.00
2019-04-29T19:05:21.180Z,100.00
2019-04-29T19:08:23.097Z,100.00
2019-04-29T19:11:15.338Z,100.00
2019-04-29T19:14:14.712Z,100.00
2019-04-29T19:17:08.854Z,100.00
2019-04-29T19:20:08.548Z,100.00
2019-04-29T19:23:07.812Z,100.00
2019-04-29T19:25:59.019Z,100.00
2019-04-29T19:28:56.799Z,100.00
2019-04-29T19:31:52.303Z,100.00
2019-04-29T19:34:54.913Z,100.00
2019-04-29T19:37:45.889Z,100.00
2019-04-29T19:40:42.840Z,100.00
2019-04-29T19:43:39.438Z,100.00
2019-04-29T19:46:38.362Z,100.00
2019-04-29T19:49:31.986Z,100.00
2019-04-29T19:52:31.766Z,100.00
2019-04-29T19:55:25.225Z,100.00
2019-04-29T19:58:28.506Z,100.00
2019-04-29T20:01:32.215Z,100.00
2019-04-29T20:04:40.983Z,100.00
2019-04-29T20:07:42.249Z,100.00
2019-04-29T20:10:42.227Z,100.00
2019-04-29T20:13:31.900Z,100.00
2019-04-29T20:16:56.722Z,100.00
2019-04-29T20:19:59.828Z,100.00
2019-04-29T20:22:53.187Z,100.00
2019-04-29T20:25:49.830Z,100.00
2019-04-29T20:28:46.474Z,100.00
2019-04-29T20:31:48.608Z,100.00
2019-04-29T20:34:39.511Z,100.00
2019-04-29T20:37:36.400Z,100.00
2019-04-29T20:40:36.251Z,100.00
2019-04-29T20:43:29.918Z,100.00
2019-04-29T20:46:26.350Z,100.00
2019-04-29T20:49:22.335Z,100.00
2019-04-29T20:52:29.587Z,100.00
2019-04-29T20:55:26.152Z,100.00
2019-04-29T20:58:23.518Z,100.00
2019-04-29T21:01:19.041Z,100.00
2019-04-29T21:04:30.614Z,100.00
2019-04-29T21:07:18.385Z,100.00
2019-04-29T21:10:09.440Z,100.00
2019-04-29T21:13:20.153Z,100.00
2019-04-29T21:16:30.748Z,100.00
2019-04-29T21:19:24.258Z,100.00
2019-04-29T21:22:23.605Z,100.00
2019-04-29T21:25:18.441Z,100.00
2019-04-29T21:28:15.824Z,100.00
2019-04-29T21:31:11.611Z,100.00
2019-04-29T21:34:08.136Z,100.00
2019-04-29T21:37:16.630Z,100.00
2019-04-29T21:40:18.683Z,100.00
2019-04-29T21:43:17.991Z,100.00
2019-04-29T21:46:19.692Z,100.00
2019-04-29T21:49:12.745Z,100.00
2019-04-29T21:52:08.113Z,100.00
2019-04-29T21:55:05.280Z,100.00
2019-04-29T21:58:01.434Z,100.00
2019-04-29T22:00:59.181Z,100.00
2019-04-29T22:03:57.642Z,100.00
2019-04-29T22:06:51.997Z,100.00
2019-04-29T22:09:50.299Z,100.00
2019-04-29T22:12:44.300Z,100.00
2019-04-29T22:15:42.634Z,100.00
2019-04-29T22:18:37.681Z,100.00
2019-04-29T22:21:36.031Z,100.00
2019-04-29T22:24:30.823Z,100.00
2019-04-29T22:27:28.361Z,100.00
2019-04-29T22:30:24.220Z,100.00
2019-04-29T22:33:21.021Z,100.00
2019-04-29T22:36:18.240Z,100.00
2019-04-29T22:39:15.713Z,100.00
2019-04-29T22:42:27.849Z,100.00
2019-04-29T22:45:33.779Z,100.00
2019-04-29T22:48:28.363Z,100.00
2019-04-29T22:51:25.424Z,100.00
2019-04-29T22:54:22.135Z,100.00
2019-04-29T22:57:22.999Z,100.00
2019-04-29T23:00:15.194Z,100.00
2019-04-29T23:03:15.404Z,100.00
2019-04-29T23:06:15.687Z,100.00
2019-04-29T23:09:12.132Z,100.00
2019-04-29T23:12:09.719Z,100.00
2019-04-29T23:15:01.751Z,100.00
2019-04-29T23:17:59.633Z,100.00
2019-04-29T23:21:16.482Z,100.00
2019-04-29T23:24:25.695Z,100.00
2019-04-29T23:27:21.575Z,100.00
2019-04-29T23:30:18.072Z,100.00
2019-04-29T23:33:15.118Z,100.00
2019-04-29T23:36:09.727Z,100.00
2019-04-29T23:39:05.691Z,100.00
2019-04-29T23:42:04.643Z,100.00
2019-04-29T23:44:58.116Z,100.00
2019-04-29T23:47:56.840Z,100.00
2019-04-29T23:50:54.690Z,100.00
2019-04-29T23:53:49.098Z,100.00
2019-04-29T23:56:49.601Z,100.00
2019-04-29T23:59:48.845Z,100.00
